Piatt, Pennsylvania
Current Conditions -  °F | °C
As of 4:28 AM on Thursday 23 Oct 2014 (Local Time) from KIPT Reporting Station
Overcast Overcast  
Wind Chill: 51°   Ceiling: 2700
Heat Index: 51°   Visibility: 10mi
Dew Point: 40°   Wind: 13mph
Humidity: 66%   Direction: 330°NNW
Pressure: 29.93"   Gusts: 21mph
Location:  41.1288°N, 77.1989°W
Report Text: KIPT 230828Z AUTO 33011G18KT 10SM BKN027 OVC060 11/04 A2993 RMK AO2 T01060044
Loading
Personal Weather Stations






























Interactive Weather Map
Tropical Storm Tracking
New forecast layout! Learn more

10-Day Weather Forecast

Advertisements
Track Severe Weather on mobile